sensor_id;sensor_type;location;lat;lon;timestamp;temperature;humidity
23291;DHT22;11814;44.686;10.842;2022-12-29T00:02:16;10.60;99.90
23291;DHT22;11814;44.686;10.842;2022-12-29T00:04:42;10.60;99.90
23291;DHT22;11814;44.686;10.842;2022-12-29T00:07:09;10.60;99.90
23291;DHT22;11814;44.686;10.842;2022-12-29T00:09:35;10.60;99.90
23291;DHT22;11814;44.686;10.842;2022-12-29T00:12:01;10.60;99.90
23291;DHT22;11814;44.686;10.842;2022-12-29T00:14:28;10.50;99.90
23291;DHT22;11814;44.686;10.842;2022-12-29T00:17:13;10.60;99.90
23291;DHT22;11814;44.686;10.842;2022-12-29T00:19:39;10.50;99.90
23291;DHT22;11814;44.686;10.842;2022-12-29T00:22:23;10.50;99.90
23291;DHT22;11814;44.686;10.842;2022-12-29T00:25:09;10.50;99.90
23291;DHT22;11814;44.686;10.842;2022-12-29T00:27:53;10.50;99.90
23291;DHT22;11814;44.686;10.842;2022-12-29T00:30:38;10.50;99.90
23291;DHT22;11814;44.686;10.842;2022-12-29T00:33:31;10.60;99.90
23291;DHT22;11814;44.686;10.842;2022-12-29T00:36:30;10.50;99.90
23291;DHT22;11814;44.686;10.842;2022-12-29T00:39:01;10.50;99.90
23291;DHT22;11814;44.686;10.842;2022-12-29T00:41:47;10.50;99.90
23291;DHT22;11814;44.686;10.842;2022-12-29T00:44:32;10.50;99.90
23291;DHT22;11814;44.686;10.842;2022-12-29T00:46:58;10.50;99.90
23291;DHT22;11814;44.686;10.842;2022-12-29T00:49:27;10.50;99.90
23291;DHT22;11814;44.686;10.842;2022-12-29T00:52:05;10.50;99.90
23291;DHT22;11814;44.686;10.842;2022-12-29T00:54:33;10.50;99.90
23291;DHT22;11814;44.686;10.842;2022-12-29T00:57:00;10.50;99.90
23291;DHT22;11814;44.686;10.842;2022-12-29T00:59:26;10.50;99.90
23291;DHT22;11814;44.686;10.842;2022-12-29T01:01:53;10.50;99.90
23291;DHT22;11814;44.686;10.842;2022-12-29T01:04:21;10.50;99.90
23291;DHT22;11814;44.686;10.842;2022-12-29T01:06:47;10.50;99.90
23291;DHT22;11814;44.686;10.842;2022-12-29T01:09:13;10.50;99.90
23291;DHT22;11814;44.686;10.842;2022-12-29T01:11:58;10.50;99.90
23291;DHT22;11814;44.686;10.842;2022-12-29T01:14:24;10.50;99.90
23291;DHT22;11814;44.686;10.842;2022-12-29T01:16:50;10.50;99.90
23291;DHT22;11814;44.686;10.842;2022-12-29T01:19:17;10.50;99.90
23291;DHT22;11814;44.686;10.842;2022-12-29T01:21:43;10.50;99.90
23291;DHT22;11814;44.686;10.842;2022-12-29T01:24:09;10.50;99.90
23291;DHT22;11814;44.686;10.842;2022-12-29T01:26:35;10.50;99.90
23291;DHT22;11814;44.686;10.842;2022-12-29T01:29:00;10.50;99.90
23291;DHT22;11814;44.686;10.842;2022-12-29T01:31:26;10.50;99.90
23291;DHT22;11814;44.686;10.842;2022-12-29T01:33:52;10.40;99.90
23291;DHT22;11814;44.686;10.842;2022-12-29T01:36:18;10.40;99.90
23291;DHT22;11814;44.686;10.842;2022-12-29T01:38:44;10.40;99.90
23291;DHT22;11814;44.686;10.842;2022-12-29T01:41:11;10.40;99.90
23291;DHT22;11814;44.686;10.842;2022-12-29T01:43:49;10.50;99.90
23291;DHT22;11814;44.686;10.842;2022-12-29T01:51:37;10.50;99.90
23291;DHT22;11814;44.686;10.842;2022-12-29T01:54:09;10.50;99.90
23291;DHT22;11814;44.686;10.842;2022-12-29T01:56:35;10.50;99.90
23291;DHT22;11814;44.686;10.842;2022-12-29T01:59:06;10.50;99.90
23291;DHT22;11814;44.686;10.842;2022-12-29T02:01:34;10.50;99.90
23291;DHT22;11814;44.686;10.842;2022-12-29T02:04:00;10.50;99.90
23291;DHT22;11814;44.686;10.842;2022-12-29T02:06:35;10.50;99.90
23291;DHT22;11814;44.686;10.842;2022-12-29T02:09:02;10.50;99.90
23291;DHT22;11814;44.686;10.842;2022-12-29T02:11:29;10.50;99.90
23291;DHT22;11814;44.686;10.842;2022-12-29T02:13:56;10.50;99.90
23291;DHT22;11814;44.686;10.842;2022-12-29T02:22:19;10.50;99.90
23291;DHT22;11814;44.686;10.842;2022-12-29T02:25:00;10.50;99.90
23291;DHT22;11814;44.686;10.842;2022-12-29T02:30:27;10.50;99.90
23291;DHT22;11814;44.686;10.842;2022-12-29T02:38:33;10.50;99.90
23291;DHT22;11814;44.686;10.842;2022-12-29T02:44:28;10.50;99.90
23291;DHT22;11814;44.686;10.842;2022-12-29T02:47:16;10.50;99.90
23291;DHT22;11814;44.686;10.842;2022-12-29T02:50:06;10.50;99.90
23291;DHT22;11814;44.686;10.842;2022-12-29T02:53:19;10.40;99.90
23291;DHT22;11814;44.686;10.842;2022-12-29T02:55:38;10.40;99.90
23291;DHT22;11814;44.686;10.842;2022-12-29T03:03:20;10.40;99.90
23291;DHT22;11814;44.686;10.842;2022-12-29T03:11:03;10.40;99.90
23291;DHT22;11814;44.686;10.842;2022-12-29T03:19:21;10.30;99.90
23291;DHT22;11814;44.686;10.842;2022-12-29T03:22:03;10.40;99.90
23291;DHT22;11814;44.686;10.842;2022-12-29T03:24:51;10.30;99.90
23291;DHT22;11814;44.686;10.842;2022-12-29T03:27:22;10.30;99.90
23291;DHT22;11814;44.686;10.842;2022-12-29T03:29:57;10.30;99.90
23291;DHT22;11814;44.686;10.842;2022-12-29T03:32:33;10.30;99.90
23291;DHT22;11814;44.686;10.842;2022-12-29T03:35:01;10.30;99.90
23291;DHT22;11814;44.686;10.842;2022-12-29T03:37:34;10.40;99.90
23291;DHT22;11814;44.686;10.842;2022-12-29T03:40:01;10.40;99.90
23291;DHT22;11814;44.686;10.842;2022-12-29T03:42:30;10.30;99.90
23291;DHT22;11814;44.686;10.842;2022-12-29T03:44:57;10.40;99.90
23291;DHT22;11814;44.686;10.842;2022-12-29T03:47:24;10.40;99.90
23291;DHT22;11814;44.686;10.842;2022-12-29T03:49:50;10.40;99.90
23291;DHT22;11814;44.686;10.842;2022-12-29T03:52:17;10.40;99.90
23291;DHT22;11814;44.686;10.842;2022-12-29T03:54:42;10.40;99.90
23291;DHT22;11814;44.686;10.842;2022-12-29T03:57:09;10.40;99.90
23291;DHT22;11814;44.686;10.842;2022-12-29T03:59:35;10.40;99.90
23291;DHT22;11814;44.686;10.842;2022-12-29T04:02:01;10.40;99.90
23291;DHT22;11814;44.686;10.842;2022-12-29T04:04:27;10.40;99.90
23291;DHT22;11814;44.686;10.842;2022-12-29T04:06:52;10.40;99.90
23291;DHT22;11814;44.686;10.842;2022-12-29T04:09:18;10.30;99.90
23291;DHT22;11814;44.686;10.842;2022-12-29T04:11:44;10.40;99.90
23291;DHT22;11814;44.686;10.842;2022-12-29T04:14:09;10.40;99.90
23291;DHT22;11814;44.686;10.842;2022-12-29T04:16:35;10.40;99.90
23291;DHT22;11814;44.686;10.842;2022-12-29T04:19:04;10.40;99.90
23291;DHT22;11814;44.686;10.842;2022-12-29T04:21:30;10.40;99.90
23291;DHT22;11814;44.686;10.842;2022-12-29T04:23:56;10.40;99.90
23291;DHT22;11814;44.686;10.842;2022-12-29T04:26:22;10.40;99.90
23291;DHT22;11814;44.686;10.842;2022-12-29T04:28:47;10.40;99.90
23291;DHT22;11814;44.686;10.842;2022-12-29T04:31:13;10.40;99.90
23291;DHT22;11814;44.686;10.842;2022-12-29T04:33:39;10.40;99.90
23291;DHT22;11814;44.686;10.842;2022-12-29T04:36:05;10.40;99.90
23291;DHT22;11814;44.686;10.842;2022-12-29T04:38:31;10.40;99.90
23291;DHT22;11814;44.686;10.842;2022-12-29T04:41:00;10.40;99.90
23291;DHT22;11814;44.686;10.842;2022-12-29T04:43:26;10.40;99.90
23291;DHT22;11814;44.686;10.842;2022-12-29T04:45:52;10.40;99.90
23291;DHT22;11814;44.686;10.842;2022-12-29T04:48:17;10.40;99.90
23291;DHT22;11814;44.686;10.842;2022-12-29T04:50:43;10.40;99.90
23291;DHT22;11814;44.686;10.842;2022-12-29T04:53:10;10.40;99.90
23291;DHT22;11814;44.686;10.842;2022-12-29T04:55:35;10.40;99.90
23291;DHT22;11814;44.686;10.842;2022-12-29T04:58:01;10.40;99.90
23291;DHT22;11814;44.686;10.842;2022-12-29T05:00:27;10.40;99.90
23291;DHT22;11814;44.686;10.842;2022-12-29T05:02:53;10.40;99.90
23291;DHT22;11814;44.686;10.842;2022-12-29T05:05:18;10.40;99.90
23291;DHT22;11814;44.686;10.842;2022-12-29T05:07:44;10.40;99.90
23291;DHT22;11814;44.686;10.842;2022-12-29T05:10:10;10.30;99.90
23291;DHT22;11814;44.686;10.842;2022-12-29T05:12:37;10.30;99.90
23291;DHT22;11814;44.686;10.842;2022-12-29T05:15:04;10.40;99.90
23291;DHT22;11814;44.686;10.842;2022-12-29T05:17:30;10.40;99.90
23291;DHT22;11814;44.686;10.842;2022-12-29T05:19:56;10.40;99.90
23291;DHT22;11814;44.686;10.842;2022-12-29T05:22:22;10.30;99.90
23291;DHT22;11814;44.686;10.842;2022-12-29T05:24:48;10.30;99.90
23291;DHT22;11814;44.686;10.842;2022-12-29T05:27:14;10.30;99.90
23291;DHT22;11814;44.686;10.842;2022-12-29T05:29:39;10.40;99.90
23291;DHT22;11814;44.686;10.842;2022-12-29T05:32:05;10.30;99.90
23291;DHT22;11814;44.686;10.842;2022-12-29T05:34:31;10.30;99.90
23291;DHT22;11814;44.686;10.842;2022-12-29T05:36:57;10.30;99.90
23291;DHT22;11814;44.686;10.842;2022-12-29T05:39:23;10.30;99.90
23291;DHT22;11814;44.686;10.842;2022-12-29T05:41:51;10.30;99.90
23291;DHT22;11814;44.686;10.842;2022-12-29T05:44:16;10.30;99.90
23291;DHT22;11814;44.686;10.842;2022-12-29T05:46:42;10.30;99.90
23291;DHT22;11814;44.686;10.842;2022-12-29T05:49:08;10.30;99.90
23291;DHT22;11814;44.686;10.842;2022-12-29T05:51:33;10.30;99.90
23291;DHT22;11814;44.686;10.842;2022-12-29T05:53:59;10.30;99.90
23291;DHT22;11814;44.686;10.842;2022-12-29T05:56:25;10.30;99.90
23291;DHT22;11814;44.686;10.842;2022-12-29T05:58:51;10.30;99.90
23291;DHT22;11814;44.686;10.842;2022-12-29T06:01:16;10.30;99.90
23291;DHT22;11814;44.686;10.842;2022-12-29T06:03:42;10.30;99.90
23291;DHT22;11814;44.686;10.842;2022-12-29T06:06:08;10.30;99.90
23291;DHT22;11814;44.686;10.842;2022-12-29T06:08:33;10.30;99.90
23291;DHT22;11814;44.686;10.842;2022-12-29T06:10:59;10.40;99.90
23291;DHT22;11814;44.686;10.842;2022-12-29T06:13:25;10.30;99.90
23291;DHT22;11814;44.686;10.842;2022-12-29T06:15:51;10.30;99.90
23291;DHT22;11814;44.686;10.842;2022-12-29T06:18:17;10.30;99.90
23291;DHT22;11814;44.686;10.842;2022-12-29T06:20:42;10.30;99.90
23291;DHT22;11814;44.686;10.842;2022-12-29T06:23:08;10.30;99.90
23291;DHT22;11814;44.686;10.842;2022-12-29T06:25:34;10.30;99.90
23291;DHT22;11814;44.686;10.842;2022-12-29T06:28:02;10.30;99.90
23291;DHT22;11814;44.686;10.842;2022-12-29T06:30:27;10.30;99.90
23291;DHT22;11814;44.686;10.842;2022-12-29T06:32:53;10.30;99.90
23291;DHT22;11814;44.686;10.842;2022-12-29T06:35:20;10.30;99.90
23291;DHT22;11814;44.686;10.842;2022-12-29T06:37:47;10.30;99.90
23291;DHT22;11814;44.686;10.842;2022-12-29T06:40:13;10.20;99.90
23291;DHT22;11814;44.686;10.842;2022-12-29T06:42:39;10.20;99.90
23291;DHT22;11814;44.686;10.842;2022-12-29T06:45:05;10.20;99.90
23291;DHT22;11814;44.686;10.842;2022-12-29T06:47:33;10.20;99.90
23291;DHT22;11814;44.686;10.842;2022-12-29T06:49:59;10.20;99.90
23291;DHT22;11814;44.686;10.842;2022-12-29T06:52:25;10.20;99.90
23291;DHT22;11814;44.686;10.842;2022-12-29T06:54:51;10.20;99.90
23291;DHT22;11814;44.686;10.842;2022-12-29T06:57:16;10.20;99.90
23291;DHT22;11814;44.686;10.842;2022-12-29T06:59:42;10.20;99.90
23291;DHT22;11814;44.686;10.842;2022-12-29T07:02:10;10.20;99.90
23291;DHT22;11814;44.686;10.842;2022-12-29T07:04:36;10.10;99.90
23291;DHT22;11814;44.686;10.842;2022-12-29T07:07:02;10.20;99.90
23291;DHT22;11814;44.686;10.842;2022-12-29T07:09:28;10.20;99.90
23291;DHT22;11814;44.686;10.842;2022-12-29T07:11:53;10.20;99.90
23291;DHT22;11814;44.686;10.842;2022-12-29T07:14:19;10.20;99.90
23291;DHT22;11814;44.686;10.842;2022-12-29T07:16:45;10.20;99.90
23291;DHT22;11814;44.686;10.842;2022-12-29T07:19:11;10.20;99.90
23291;DHT22;11814;44.686;10.842;2022-12-29T07:21:36;10.20;99.90
23291;DHT22;11814;44.686;10.842;2022-12-29T07:24:02;10.20;99.90
23291;DHT22;11814;44.686;10.842;2022-12-29T07:26:28;10.10;99.90
23291;DHT22;11814;44.686;10.842;2022-12-29T07:28:54;10.10;99.90
23291;DHT22;11814;44.686;10.842;2022-12-29T07:31:22;10.20;99.90
23291;DHT22;11814;44.686;10.842;2022-12-29T07:33:48;10.10;99.90
23291;DHT22;11814;44.686;10.842;2022-12-29T07:36:15;10.20;99.90
23291;DHT22;11814;44.686;10.842;2022-12-29T07:38:42;10.20;99.90
23291;DHT22;11814;44.686;10.842;2022-12-29T07:41:08;10.20;99.90
23291;DHT22;11814;44.686;10.842;2022-12-29T07:43:34;10.20;99.90
23291;DHT22;11814;44.686;10.842;2022-12-29T07:45:59;10.10;99.90
23291;DHT22;11814;44.686;10.842;2022-12-29T07:48:25;10.10;99.90
23291;DHT22;11814;44.686;10.842;2022-12-29T07:50:52;10.10;99.90
23291;DHT22;11814;44.686;10.842;2022-12-29T07:53:18;10.20;99.90
23291;DHT22;11814;44.686;10.842;2022-12-29T07:55:44;10.20;99.90
23291;DHT22;11814;44.686;10.842;2022-12-29T07:58:09;10.20;99.90
23291;DHT22;11814;44.686;10.842;2022-12-29T08:00:35;10.20;99.90
23291;DHT22;11814;44.686;10.842;2022-12-29T08:03:01;10.20;99.90
23291;DHT22;11814;44.686;10.842;2022-12-29T08:05:27;10.20;99.90
23291;DHT22;11814;44.686;10.842;2022-12-29T08:07:52;10.20;99.90
23291;DHT22;11814;44.686;10.842;2022-12-29T08:10:18;10.20;99.90
23291;DHT22;11814;44.686;10.842;2022-12-29T08:12:44;10.20;99.90
23291;DHT22;11814;44.686;10.842;2022-12-29T08:15:11;10.20;99.90
23291;DHT22;11814;44.686;10.842;2022-12-29T08:17:37;10.20;99.90
23291;DHT22;11814;44.686;10.842;2022-12-29T08:20:03;10.20;99.90
23291;DHT22;11814;44.686;10.842;2022-12-29T08:22:30;10.30;99.90
23291;DHT22;11814;44.686;10.842;2022-12-29T08:24:55;10.30;99.90
23291;DHT22;11814;44.686;10.842;2022-12-29T08:27:21;10.30;99.90
23291;DHT22;11814;44.686;10.842;2022-12-29T08:29:47;10.30;99.90
23291;DHT22;11814;44.686;10.842;2022-12-29T08:32:13;10.30;99.90
23291;DHT22;11814;44.686;10.842;2022-12-29T08:34:39;10.30;99.90
23291;DHT22;11814;44.686;10.842;2022-12-29T08:37:05;10.30;99.90
23291;DHT22;11814;44.686;10.842;2022-12-29T08:39:30;10.30;99.90
23291;DHT22;11814;44.686;10.842;2022-12-29T08:41:56;10.30;99.90
23291;DHT22;11814;44.686;10.842;2022-12-29T08:44:22;10.30;99.90
23291;DHT22;11814;44.686;10.842;2022-12-29T08:46:48;10.30;99.90
23291;DHT22;11814;44.686;10.842;2022-12-29T08:49:13;10.30;99.90
23291;DHT22;11814;44.686;10.842;2022-12-29T08:51:39;10.30;99.90
23291;DHT22;11814;44.686;10.842;2022-12-29T08:54:05;10.30;99.90
23291;DHT22;11814;44.686;10.842;2022-12-29T08:56:31;10.30;99.90
23291;DHT22;11814;44.686;10.842;2022-12-29T08:58:57;10.40;99.90
23291;DHT22;11814;44.686;10.842;2022-12-29T09:01:23;10.40;99.90
23291;DHT22;11814;44.686;10.842;2022-12-29T09:03:49;10.40;99.90
23291;DHT22;11814;44.686;10.842;2022-12-29T09:06:16;10.40;99.90
23291;DHT22;11814;44.686;10.842;2022-12-29T09:08:43;10.50;99.90
23291;DHT22;11814;44.686;10.842;2022-12-29T09:11:11;10.50;99.90
23291;DHT22;11814;44.686;10.842;2022-12-29T09:13:37;10.50;99.90
23291;DHT22;11814;44.686;10.842;2022-12-29T09:16:03;10.50;99.90
23291;DHT22;11814;44.686;10.842;2022-12-29T09:18:30;10.60;99.90
23291;DHT22;11814;44.686;10.842;2022-12-29T09:21:00;10.60;99.90
23291;DHT22;11814;44.686;10.842;2022-12-29T09:23:26;10.50;99.90
23291;DHT22;11814;44.686;10.842;2022-12-29T09:25:53;10.50;99.90
23291;DHT22;11814;44.686;10.842;2022-12-29T09:28:19;10.50;99.90
23291;DHT22;11814;44.686;10.842;2022-12-29T09:30:45;10.50;99.90
23291;DHT22;11814;44.686;10.842;2022-12-29T09:33:10;10.50;99.90
23291;DHT22;11814;44.686;10.842;2022-12-29T09:35:36;10.50;99.90
23291;DHT22;11814;44.686;10.842;2022-12-29T09:38:02;10.50;99.90
23291;DHT22;11814;44.686;10.842;2022-12-29T09:40:33;10.50;99.90
23291;DHT22;11814;44.686;10.842;2022-12-29T09:48:30;10.60;99.90
23291;DHT22;11814;44.686;10.842;2022-12-29T09:51:03;10.60;99.90
23291;DHT22;11814;44.686;10.842;2022-12-29T09:53:38;10.60;99.90
23291;DHT22;11814;44.686;10.842;2022-12-29T09:56:05;10.60;99.90
23291;DHT22;11814;44.686;10.842;2022-12-29T09:58:49;10.60;99.90
23291;DHT22;11814;44.686;10.842;2022-12-29T10:03:52;10.60;99.90
23291;DHT22;11814;44.686;10.842;2022-12-29T10:06:45;10.60;99.90
23291;DHT22;11814;44.686;10.842;2022-12-29T10:12:03;10.60;99.90
23291;DHT22;11814;44.686;10.842;2022-12-29T10:19:55;10.60;99.90
23291;DHT22;11814;44.686;10.842;2022-12-29T10:22:51;10.60;99.90
23291;DHT22;11814;44.686;10.842;2022-12-29T10:25:20;10.60;99.90
23291;DHT22;11814;44.686;10.842;2022-12-29T10:27:48;10.60;99.90
23291;DHT22;11814;44.686;10.842;2022-12-29T10:30:15;10.70;99.90
23291;DHT22;11814;44.686;10.842;2022-12-29T10:32:49;10.70;99.90
23291;DHT22;11814;44.686;10.842;2022-12-29T10:35:18;10.70;99.90
23291;DHT22;11814;44.686;10.842;2022-12-29T10:37:47;10.70;99.90
23291;DHT22;11814;44.686;10.842;2022-12-29T10:43:23;10.70;99.90
23291;DHT22;11814;44.686;10.842;2022-12-29T10:45:51;10.70;99.90
23291;DHT22;11814;44.686;10.842;2022-12-29T10:48:27;10.80;99.90
23291;DHT22;11814;44.686;10.842;2022-12-29T10:50:57;10.80;99.90
23291;DHT22;11814;44.686;10.842;2022-12-29T10:53:27;10.80;99.90
23291;DHT22;11814;44.686;10.842;2022-12-29T10:55:56;10.80;99.90
23291;DHT22;11814;44.686;10.842;2022-12-29T10:58:25;10.90;99.90
23291;DHT22;11814;44.686;10.842;2022-12-29T11:00:53;10.90;99.90
23291;DHT22;11814;44.686;10.842;2022-12-29T11:06:11;10.90;99.90
23291;DHT22;11814;44.686;10.842;2022-12-29T11:08:41;10.90;99.90
23291;DHT22;11814;44.686;10.842;2022-12-29T11:11:10;10.90;99.90
23291;DHT22;11814;44.686;10.842;2022-12-29T11:13:58;10.90;99.90
23291;DHT22;11814;44.686;10.842;2022-12-29T11:16:29;10.90;99.90
23291;DHT22;11814;44.686;10.842;2022-12-29T11:18:56;10.90;99.90
23291;DHT22;11814;44.686;10.842;2022-12-29T11:21:36;11.00;99.90
23291;DHT22;11814;44.686;10.842;2022-12-29T11:24:26;11.00;99.90
23291;DHT22;11814;44.686;10.842;2022-12-29T11:26:54;11.00;99.90
23291;DHT22;11814;44.686;10.842;2022-12-29T11:29:25;11.10;99.90
23291;DHT22;11814;44.686;10.842;2022-12-29T11:31:57;11.10;99.90
23291;DHT22;11814;44.686;10.842;2022-12-29T11:34:32;11.10;99.90
23291;DHT22;11814;44.686;10.842;2022-12-29T11:42:38;11.10;99.90
23291;DHT22;11814;44.686;10.842;2022-12-29T11:45:14;11.10;99.90
23291;DHT22;11814;44.686;10.842;2022-12-29T11:47:44;11.00;99.90
23291;DHT22;11814;44.686;10.842;2022-12-29T11:50:22;11.00;99.90
23291;DHT22;11814;44.686;10.842;2022-12-29T11:52:50;11.00;99.90
23291;DHT22;11814;44.686;10.842;2022-12-29T11:55:21;11.10;99.90
23291;DHT22;11814;44.686;10.842;2022-12-29T11:57:50;11.10;99.90
23291;DHT22;11814;44.686;10.842;2022-12-29T12:00:19;11.10;99.90
23291;DHT22;11814;44.686;10.842;2022-12-29T12:03:23;11.10;99.90
23291;DHT22;11814;44.686;10.842;2022-12-29T12:05:55;11.10;99.90
23291;DHT22;11814;44.686;10.842;2022-12-29T12:08:55;11.10;99.90
23291;DHT22;11814;44.686;10.842;2022-12-29T12:11:42;11.10;99.90
23291;DHT22;11814;44.686;10.842;2022-12-29T12:14:27;11.10;99.90
23291;DHT22;11814;44.686;10.842;2022-12-29T12:17:18;11.10;99.90
23291;DHT22;11814;44.686;10.842;2022-12-29T12:19:59;11.10;99.90
23291;DHT22;11814;44.686;10.842;2022-12-29T12:22:36;11.20;99.90
23291;DHT22;11814;44.686;10.842;2022-12-29T12:25:39;11.20;99.90
23291;DHT22;11814;44.686;10.842;2022-12-29T12:28:28;11.20;99.90
23291;DHT22;11814;44.686;10.842;2022-12-29T12:30:55;11.20;99.90
23291;DHT22;11814;44.686;10.842;2022-12-29T12:33:35;11.20;99.90
23291;DHT22;11814;44.686;10.842;2022-12-29T12:36:24;11.20;99.90
23291;DHT22;11814;44.686;10.842;2022-12-29T12:42:27;11.20;99.90
23291;DHT22;11814;44.686;10.842;2022-12-29T13:04:32;11.20;99.90
23291;DHT22;11814;44.686;10.842;2022-12-29T13:13:26;11.20;99.90
23291;DHT22;11814;44.686;10.842;2022-12-29T13:15:40;11.20;99.90
23291;DHT22;11814;44.686;10.842;2022-12-29T13:19:03;11.20;99.90
23291;DHT22;11814;44.686;10.842;2022-12-29T13:35:17;11.10;99.90
23291;DHT22;11814;44.686;10.842;2022-12-29T13:37:54;11.10;99.90
23291;DHT22;11814;44.686;10.842;2022-12-29T13:40:25;11.10;99.90
23291;DHT22;11814;44.686;10.842;2022-12-29T13:42:52;11.00;99.90
23291;DHT22;11814;44.686;10.842;2022-12-29T13:45:25;11.00;99.90
23291;DHT22;11814;44.686;10.842;2022-12-29T13:47:56;11.00;99.90
23291;DHT22;11814;44.686;10.842;2022-12-29T13:50:27;11.00;99.90
23291;DHT22;11814;44.686;10.842;2022-12-29T13:55:45;11.10;99.90
23291;DHT22;11814;44.686;10.842;2022-12-29T14:05:37;11.10;99.90
23291;DHT22;11814;44.686;10.842;2022-12-29T14:08:15;11.10;99.90
23291;DHT22;11814;44.686;10.842;2022-12-29T14:10:50;11.10;99.90
23291;DHT22;11814;44.686;10.842;2022-12-29T14:13:18;11.20;99.90
23291;DHT22;11814;44.686;10.842;2022-12-29T14:15:56;11.20;99.90
23291;DHT22;11814;44.686;10.842;2022-12-29T14:18:29;11.20;99.90
23291;DHT22;11814;44.686;10.842;2022-12-29T14:26:13;11.10;99.90
23291;DHT22;11814;44.686;10.842;2022-12-29T14:28:48;11.20;99.90
23291;DHT22;11814;44.686;10.842;2022-12-29T14:33:39;11.20;99.90
23291;DHT22;11814;44.686;10.842;2022-12-29T14:36:26;11.20;99.90
23291;DHT22;11814;44.686;10.842;2022-12-29T14:38:52;11.10;99.90
23291;DHT22;11814;44.686;10.842;2022-12-29T14:44:19;11.10;99.90
23291;DHT22;11814;44.686;10.842;2022-12-29T14:49:29;11.10;99.90
23291;DHT22;11814;44.686;10.842;2022-12-29T14:54:49;11.00;99.90
23291;DHT22;11814;44.686;10.842;2022-12-29T14:57:37;11.00;99.90
23291;DHT22;11814;44.686;10.842;2022-12-29T15:00:26;11.00;99.90
23291;DHT22;11814;44.686;10.842;2022-12-29T15:03:07;11.00;99.90
23291;DHT22;11814;44.686;10.842;2022-12-29T15:05:54;11.00;99.90
23291;DHT22;11814;44.686;10.842;2022-12-29T15:08:24;11.00;99.90
23291;DHT22;11814;44.686;10.842;2022-12-29T15:10:55;10.90;99.90
23291;DHT22;11814;44.686;10.842;2022-12-29T15:13:24;10.90;99.90
23291;DHT22;11814;44.686;10.842;2022-12-29T15:15:51;10.90;99.90
23291;DHT22;11814;44.686;10.842;2022-12-29T15:18:26;10.90;99.90
23291;DHT22;11814;44.686;10.842;2022-12-29T15:20:59;10.90;99.90
23291;DHT22;11814;44.686;10.842;2022-12-29T15:23:26;10.90;99.90
23291;DHT22;11814;44.686;10.842;2022-12-29T15:26:02;10.90;99.90
23291;DHT22;11814;44.686;10.842;2022-12-29T15:28:38;10.90;99.90
23291;DHT22;11814;44.686;10.842;2022-12-29T15:31:09;10.90;99.90
23291;DHT22;11814;44.686;10.842;2022-12-29T15:33:40;10.90;99.90
23291;DHT22;11814;44.686;10.842;2022-12-29T15:36:12;10.90;99.90
23291;DHT22;11814;44.686;10.842;2022-12-29T15:38:39;10.90;99.90
23291;DHT22;11814;44.686;10.842;2022-12-29T15:41:39;10.90;99.90
23291;DHT22;11814;44.686;10.842;2022-12-29T15:44:29;10.90;99.90
23291;DHT22;11814;44.686;10.842;2022-12-29T15:47:01;10.90;99.90
23291;DHT22;11814;44.686;10.842;2022-12-29T15:49:27;10.80;99.90
23291;DHT22;11814;44.686;10.842;2022-12-29T15:51:53;10.80;99.90
23291;DHT22;11814;44.686;10.842;2022-12-29T15:54:21;10.80;99.90
23291;DHT22;11814;44.686;10.842;2022-12-29T15:56:48;10.80;99.90
23291;DHT22;11814;44.686;10.842;2022-12-29T15:59:27;10.80;99.90
23291;DHT22;11814;44.686;10.842;2022-12-29T16:01:55;10.80;99.90
23291;DHT22;11814;44.686;10.842;2022-12-29T16:04:21;10.80;99.90
23291;DHT22;11814;44.686;10.842;2022-12-29T16:06:58;10.80;99.90
23291;DHT22;11814;44.686;10.842;2022-12-29T16:10:00;10.80;99.90
23291;DHT22;11814;44.686;10.842;2022-12-29T16:12:34;10.80;99.90
23291;DHT22;11814;44.686;10.842;2022-12-29T16:15:05;10.80;99.90
23291;DHT22;11814;44.686;10.842;2022-12-29T16:17:41;10.70;99.90
23291;DHT22;11814;44.686;10.842;2022-12-29T16:22:49;10.70;99.90
23291;DHT22;11814;44.686;10.842;2022-12-29T16:25:18;10.60;99.90
23291;DHT22;11814;44.686;10.842;2022-12-29T16:27:44;10.70;99.90
23291;DHT22;11814;44.686;10.842;2022-12-29T16:32:50;10.60;99.90
23291;DHT22;11814;44.686;10.842;2022-12-29T16:35:24;10.60;99.90
23291;DHT22;11814;44.686;10.842;2022-12-29T16:38:20;10.60;99.90
23291;DHT22;11814;44.686;10.842;2022-12-29T16:43:24;10.60;99.90
23291;DHT22;11814;44.686;10.842;2022-12-29T16:48:17;10.60;99.90
23291;DHT22;11814;44.686;10.842;2022-12-29T16:50:44;10.60;99.90
23291;DHT22;11814;44.686;10.842;2022-12-29T16:53:23;10.60;99.90
23291;DHT22;11814;44.686;10.842;2022-12-29T16:55:51;10.60;99.90
23291;DHT22;11814;44.686;10.842;2022-12-29T16:58:26;10.60;99.90
23291;DHT22;11814;44.686;10.842;2022-12-29T17:00:58;10.60;99.90
23291;DHT22;11814;44.686;10.842;2022-12-29T17:03:32;10.60;99.90
23291;DHT22;11814;44.686;10.842;2022-12-29T17:05:59;10.60;99.90
23291;DHT22;11814;44.686;10.842;2022-12-29T17:08:25;10.50;99.90
23291;DHT22;11814;44.686;10.842;2022-12-29T17:10:52;10.50;99.90
23291;DHT22;11814;44.686;10.842;2022-12-29T17:13:38;10.60;99.90
23291;DHT22;11814;44.686;10.842;2022-12-29T17:16:05;10.60;99.90
23291;DHT22;11814;44.686;10.842;2022-12-29T17:18:33;10.50;99.90
23291;DHT22;11814;44.686;10.842;2022-12-29T17:20:59;10.50;99.90
23291;DHT22;11814;44.686;10.842;2022-12-29T17:23:25;10.50;99.90
23291;DHT22;11814;44.686;10.842;2022-12-29T17:25:52;10.40;99.90
23291;DHT22;11814;44.686;10.842;2022-12-29T17:28:26;10.40;99.90
23291;DHT22;11814;44.686;10.842;2022-12-29T17:30:55;10.40;99.90
23291;DHT22;11814;44.686;10.842;2022-12-29T17:33:22;10.40;99.90
23291;DHT22;11814;44.686;10.842;2022-12-29T17:35:48;10.40;99.90
23291;DHT22;11814;44.686;10.842;2022-12-29T17:38:18;10.40;99.90
23291;DHT22;11814;44.686;10.842;2022-12-29T17:40:44;10.40;99.90
23291;DHT22;11814;44.686;10.842;2022-12-29T17:43:15;10.40;99.90
23291;DHT22;11814;44.686;10.842;2022-12-29T17:45:41;10.40;99.90
23291;DHT22;11814;44.686;10.842;2022-12-29T17:48:15;10.40;99.90
23291;DHT22;11814;44.686;10.842;2022-12-29T17:50:42;10.40;99.90
23291;DHT22;11814;44.686;10.842;2022-12-29T17:53:17;10.50;99.90
23291;DHT22;11814;44.686;10.842;2022-12-29T17:55:44;10.50;99.90
23291;DHT22;11814;44.686;10.842;2022-12-29T17:58:21;10.50;99.90
23291;DHT22;11814;44.686;10.842;2022-12-29T18:00:49;10.40;99.90
23291;DHT22;11814;44.686;10.842;2022-12-29T18:03:17;10.40;99.90